Time;durP1;ratioP1;P1;durP2;ratioP2;P2;SDS_P1;SDS_P2;PMS_P1;PMS_P2;Temp;Humidity;BMP_temperature;BMP_pressure;BME280_temperature;BME280_humidity;BME280_pressure;Samples;Min_cycle;Max_cycle;Signal;HPM_P1;HPM_P2
2022/03/31 00:00:08;;;;;;;2.65;2.20;;;11.90;62.70;;;;;;5002396;28;20066;-78
2022/03/31 00:02:37;;;;;;;2.45;2.00;;;11.80;62.60;;;;;;4993125;28;20065;-78
2022/03/31 00:05:03;;;;;;;3.17;2.05;;;11.80;62.60;;;;;;4976799;28;20034;-77
2022/03/31 00:07:30;;;;;;;2.72;1.95;;;11.80;62.70;;;;;;4987159;28;20073;-77
2022/03/31 00:09:55;;;;;;;2.85;2.10;;;11.70;62.70;;;;;;4976516;28;20042;-80
2022/03/31 00:12:21;;;;;;;3.15;2.20;;;11.70;62.80;;;;;;4959325;28;20395;-78
2022/03/31 00:14:47;;;;;;;2.88;2.45;;;11.70;62.70;;;;;;4992450;28;20042;-77
2022/03/31 00:17:13;;;;;;;3.28;2.22;;;11.70;62.70;;;;;;4976849;28;20018;-77
2022/03/31 00:19:40;;;;;;;2.55;1.95;;;11.70;62.80;;;;;;4979334;28;20031;-78
2022/03/31 00:22:05;;;;;;;4.07;2.55;;;11.60;62.80;;;;;;4981549;28;20694;-77
2022/03/31 00:24:31;;;;;;;2.80;2.22;;;11.60;62.80;;;;;;4988876;28;20038;-78
2022/03/31 00:26:58;;;;;;;2.85;2.40;;;11.60;62.90;;;;;;4976378;28;20399;-79
2022/03/31 00:29:27;;;;;;;3.33;2.38;;;11.50;62.80;;;;;;4961086;28;20034;-78
2022/03/31 00:31:54;;;;;;;3.40;2.40;;;11.50;62.90;;;;;;4959892;28;20030;-78
2022/03/31 00:34:20;;;;;;;3.38;2.28;;;11.50;62.90;;;;;;4976820;28;20061;-77
2022/03/31 00:36:46;;;;;;;2.75;2.25;;;11.50;62.90;;;;;;4976122;28;20093;-78
2022/03/31 00:39:31;;;;;;;3.25;2.35;;;11.50;63.00;;;;;;4966378;28;20479;-78
2022/03/31 00:41:59;;;;;;;3.20;2.25;;;11.50;63.00;;;;;;4974860;28;20510;-77
2022/03/31 00:44:26;;;;;;;3.80;2.50;;;11.40;63.00;;;;;;4976008;28;20547;-79
2022/03/31 00:46:53;;;;;;;3.40;2.63;;;11.40;63.00;;;;;;4990081;28;20034;-78
2022/03/31 00:49:20;;;;;;;3.67;2.45;;;11.40;63.00;;;;;;4972309;28;20030;-78
2022/03/31 00:51:47;;;;;;;3.63;2.72;;;11.30;63.00;;;;;;4985607;28;20476;-78
2022/03/31 00:54:15;;;;;;;3.78;2.70;;;11.30;63.10;;;;;;4972372;28;20077;-78
2022/03/31 00:56:41;;;;;;;3.33;2.50;;;11.30;63.10;;;;;;4981184;28;20109;-78
2022/03/31 00:59:10;;;;;;;3.92;2.58;;;11.30;63.10;;;;;;4981066;28;20099;-78
2022/03/31 01:01:39;;;;;;;3.72;2.63;;;11.20;63.10;;;;;;5012054;28;20030;-78
2022/03/31 01:04:06;;;;;;;3.72;2.25;;;11.30;63.20;;;;;;4969561;28;20487;-78
2022/03/31 01:06:32;;;;;;;4.03;2.72;;;11.20;63.20;;;;;;4991782;28;20114;-78
2022/03/31 01:08:59;;;;;;;3.60;2.60;;;11.20;63.20;;;;;;5010022;28;20107;-78
2022/03/31 01:11:25;;;;;;;3.83;2.70;;;11.20;63.30;;;;;;4995622;28;20030;-78
2022/03/31 01:13:51;;;;;;;3.30;2.70;;;11.10;63.20;;;;;;5000480;28;20026;-76
2022/03/31 01:16:17;;;;;;;3.13;2.63;;;11.10;63.30;;;;;;4998429;28;20042;-77
2022/03/31 01:18:43;;;;;;;3.30;2.50;;;11.10;63.30;;;;;;4977520;28;20046;-77
2022/03/31 01:21:11;;;;;;;3.63;2.90;;;11.10;63.30;;;;;;4994642;28;20024;-77
2022/03/31 01:23:37;;;;;;;3.67;2.58;;;11.10;63.40;;;;;;5007523;28;20037;-77
2022/03/31 01:26:10;;;;;;;3.30;2.42;;;11.10;63.40;;;;;;5010782;28;20113;-78
2022/03/31 01:28:41;;;;;;;4.10;2.72;;;11.00;63.40;;;;;;5010596;28;20037;-78
2022/03/31 01:31:08;;;;;;;4.38;2.72;;;11.00;63.40;;;;;;5011641;28;20401;-78
2022/03/31 01:33:34;;;;;;;4.15;2.70;;;11.00;63.40;;;;;;4975874;28;20467;-77
2022/03/31 01:36:01;;;;;;;3.33;2.78;;;10.90;63.40;;;;;;5008372;28;20030;-78
2022/03/31 01:38:27;;;;;;;3.45;2.47;;;11.00;63.50;;;;;;5009777;28;20045;-78
2022/03/31 01:40:53;;;;;;;3.63;2.90;;;10.90;63.50;;;;;;5003242;28;20528;-78
2022/03/31 01:43:20;;;;;;;4.53;2.97;;;10.90;63.50;;;;;;4961742;28;20035;-77
2022/03/31 01:45:49;;;;;;;3.97;2.90;;;10.80;63.50;;;;;;4993437;28;20072;-77
2022/03/31 01:48:18;;;;;;;4.00;2.92;;;10.80;63.50;;;;;;5010443;28;20042;-77
2022/03/31 01:50:43;;;;;;;4.05;2.70;;;10.80;63.60;;;;;;4992020;28;20030;-77
2022/03/31 01:53:09;;;;;;;3.42;2.60;;;10.80;63.60;;;;;;4991301;28;20121;-79
2022/03/31 01:55:36;;;;;;;4.07;2.88;;;10.80;63.60;;;;;;5009757;28;20172;-78
2022/03/31 01:58:03;;;;;;;5.00;3.17;;;10.80;63.60;;;;;;5005013;28;20050;-77
2022/03/31 02:00:29;;;;;;;4.10;2.80;;;10.70;63.60;;;;;;5007266;28;20544;-77
2022/03/31 02:02:55;;;;;;;3.50;2.40;;;10.70;63.60;;;;;;5008433;28;20017;-77
2022/03/31 02:05:21;;;;;;;3.28;2.55;;;10.70;63.70;;;;;;4986332;28;20041;-77
2022/03/31 02:07:47;;;;;;;3.78;2.80;;;10.60;63.60;;;;;;4977230;28;20383;-77
2022/03/31 02:10:15;;;;;;;3.97;2.47;;;10.60;63.70;;;;;;4991123;28;20038;-77
2022/03/31 02:12:41;;;;;;;3.60;2.50;;;10.60;63.70;;;;;;4992685;28;21833;-78
2022/03/31 02:15:09;;;;;;;3.28;2.50;;;10.60;63.70;;;;;;5025391;28;20029;-76
2022/03/31 02:17:35;;;;;;;3.42;2.25;;;10.60;63.70;;;;;;5010276;28;20498;-77
2022/03/31 02:20:01;;;;;;;3.75;2.40;;;10.60;63.70;;;;;;5007562;28;20041;-77
2022/03/31 02:22:27;;;;;;;3.88;2.60;;;10.50;63.70;;;;;;4973964;28;20469;-79
2022/03/31 02:24:53;;;;;;;3.05;2.33;;;10.50;63.80;;;;;;4993221;28;20434;-77
2022/03/31 02:27:19;;;;;;;3.03;2.20;;;10.50;63.80;;;;;;4996696;28;20026;-77
2022/03/31 02:29:45;;;;;;;3.40;2.40;;;10.50;63.80;;;;;;4989331;28;20061;-77
2022/03/31 02:32:11;;;;;;;2.65;2.25;;;10.50;63.80;;;;;;4998914;28;20439;-78
2022/03/31 02:34:37;;;;;;;2.40;2.00;;;10.50;63.80;;;;;;5006418;28;20030;-78
2022/03/31 02:37:04;;;;;;;2.85;2.10;;;10.40;63.80;;;;;;5005322;28;20044;-78
2022/03/31 02:39:30;;;;;;;2.45;1.95;;;10.40;63.80;;;;;;4985372;28;20506;-79
2022/03/31 02:41:57;;;;;;;2.30;1.88;;;10.40;63.80;;;;;;4993230;28;20121;-79
2022/03/31 02:44:24;;;;;;;2.25;1.83;;;10.40;63.90;;;;;;5009567;28;20044;-77
2022/03/31 02:46:51;;;;;;;1.85;1.65;;;10.30;63.80;;;;;;4974222;28;20097;-78
2022/03/31 02:49:17;;;;;;;1.60;1.50;;;10.30;63.90;;;;;;5004030;28;20127;-77
2022/03/31 02:51:43;;;;;;;1.65;1.55;;;10.30;63.80;;;;;;4973930;28;20034;-78
2022/03/31 02:56:53;;;;;;;1.92;1.70;;;10.30;63.90;;;;;;5010809;28;20042;-78
2022/03/31 02:59:20;;;;;;;2.03;1.70;;;10.20;63.80;;;;;;4992824;28;20096;-77
2022/03/31 03:01:46;;;;;;;2.03;1.60;;;10.30;63.90;;;;;;4991025;28;20062;-79
2022/03/31 03:04:12;;;;;;;1.77;1.60;;;10.20;63.90;;;;;;4976709;28;20073;-78
2022/03/31 03:06:38;;;;;;;1.60;1.50;;;10.20;63.90;;;;;;5004485;28;20125;-77
2022/03/31 03:09:05;;;;;;;1.60;1.50;;;10.20;63.90;;;;;;4974763;28;20030;-78
2022/03/31 03:11:31;;;;;;;1.65;1.55;;;10.20;63.90;;;;;;5015462;28;20698;-79
2022/03/31 03:13:57;;;;;;;1.40;1.30;;;10.10;63.90;;;;;;4996225;28;20117;-78
2022/03/31 03:16:25;;;;;;;2.03;1.60;;;10.10;63.90;;;;;;5010759;28;20041;-78
2022/03/31 03:18:52;;;;;;;1.20;1.15;;;10.10;63.90;;;;;;4974463;28;20030;-80
2022/03/31 03:21:19;;;;;;;1.50;1.40;;;10.10;64.00;;;;;;5012007;28;20042;-78
2022/03/31 03:23:45;;;;;;;1.52;1.40;;;10.10;64.00;;;;;;4992768;28;20385;-79
2022/03/31 03:26:12;;;;;;;1.45;1.35;;;10.00;63.90;;;;;;5008954;28;20486;-79
2022/03/31 03:28:38;;;;;;;1.50;1.40;;;10.00;64.00;;;;;;4993359;28;20050;-78
2022/03/31 03:31:06;;;;;;;1.30;1.20;;;10.00;64.00;;;;;;4980679;28;20021;-78
2022/03/31 03:33:32;;;;;;;1.55;1.42;;;10.00;64.00;;;;;;5014177;28;20026;-79
2022/03/31 03:35:59;;;;;;;1.45;1.35;;;10.00;64.00;;;;;;5006284;28;20014;-79
2022/03/31 03:38:26;;;;;;;1.45;1.35;;;9.90;64.00;;;;;;5003449;28;20038;-79
2022/03/31 03:40:52;;;;;;;1.35;1.25;;;10.00;64.00;;;;;;5012262;28;20026;-77
2022/03/31 03:43:18;;;;;;;1.20;1.10;;;9.90;64.00;;;;;;4996578;28;20479;-78
2022/03/31 03:45:44;;;;;;;1.48;1.38;;;9.90;64.10;;;;;;5013173;28;20041;-78
2022/03/31 03:48:12;;;;;;;1.38;1.20;;;9.90;64.10;;;;;;4991602;28;20034;-79
2022/03/31 03:50:38;;;;;;;1.20;1.13;;;9.90;64.10;;;;;;4976761;28;20050;-78
2022/03/31 03:53:08;;;;;;;1.40;1.30;;;9.90;64.10;;;;;;4974040;28;20032;-79
2022/03/31 03:55:35;;;;;;;1.23;1.20;;;9.80;64.10;;;;;;5010269;28;20487;-78
2022/03/31 03:58:02;;;;;;;1.30;1.20;;;9.80;64.10;;;;;;5012859;28;20087;-78
2022/03/31 04:00:30;;;;;;;1.17;1.10;;;9.80;64.10;;;;;;5010624;28;20069;-78
2022/03/31 04:02:55;;;;;;;1.10;1.10;;;9.80;64.20;;;;;;5012517;28;20036;-77
2022/03/31 04:05:22;;;;;;;1.30;1.20;;;9.70;64.10;;;;;;5006892;28;20037;-79
2022/03/31 04:07:48;;;;;;;1.30;1.20;;;9.70;64.20;;;;;;5005737;28;20113;-79
2022/03/31 04:10:13;;;;;;;1.15;1.15;;;9.70;64.20;;;;;;4992993;28;20022;-78
2022/03/31 04:12:39;;;;;;;1.20;1.20;;;9.70;64.20;;;;;;4996089;28;20037;-79
2022/03/31 04:15:07;;;;;;;1.63;1.50;;;9.60;64.20;;;;;;4973044;28;20034;-79
2022/03/31 04:17:34;;;;;;;1.25;1.15;;;9.60;64.20;;;;;;4979043;28;20034;-78
2022/03/31 04:20:00;;;;;;;1.75;1.30;;;9.60;64.30;;;;;;5011724;28;20068;-78
2022/03/31 04:22:27;;;;;;;1.30;1.20;;;9.60;64.30;;;;;;4977628;28;20089;-78
2022/03/31 04:24:53;;;;;;;1.30;1.20;;;9.60;64.30;;;;;;5005643;28;20027;-78
2022/03/31 04:27:19;;;;;;;1.10;1.10;;;9.60;64.40;;;;;;5012524;28;20129;-78
2022/03/31 04:29:45;;;;;;;1.45;1.30;;;9.50;64.30;;;;;;5007042;28;20080;-78
2022/03/31 04:32:12;;;;;;;1.83;1.45;;;9.50;64.30;;;;;;5011450;28;20042;-76
2022/03/31 04:34:38;;;;;;;1.30;1.20;;;9.50;64.30;;;;;;4987919;28;20513;-77
2022/03/31 04:37:06;;;;;;;1.20;1.20;;;9.50;64.30;;;;;;4993524;28;20026;-77
2022/03/31 04:39:32;;;;;;;1.27;1.20;;;9.50;64.30;;;;;;4994822;28;20399;-76
2022/03/31 04:41:57;;;;;;;1.30;1.20;;;9.40;64.30;;;;;;4998187;28;20038;-77
2022/03/31 04:44:23;;;;;;;1.38;1.27;;;9.40;64.30;;;;;;4990397;28;20042;-78
2022/03/31 04:46:49;;;;;;;1.20;1.10;;;9.40;64.30;;;;;;4990811;28;20023;-78
2022/03/31 04:49:15;;;;;;;1.30;1.20;;;9.30;64.30;;;;;;4978340;28;20045;-78
2022/03/31 04:51:40;;;;;;;1.50;1.40;;;9.30;64.30;;;;;;4994367;28;20350;-80
2022/03/31 04:54:06;;;;;;;1.30;1.20;;;9.30;64.30;;;;;;5010528;28;20033;-78
2022/03/31 04:56:32;;;;;;;1.30;1.20;;;9.30;64.40;;;;;;4994776;28;20045;-78
2022/03/31 04:58:58;;;;;;;1.13;1.05;;;9.30;64.40;;;;;;4989321;28;20038;-78
2022/03/31 05:01:24;;;;;;;1.17;1.17;;;9.30;64.40;;;;;;4991124;28;20031;-77
2022/03/31 05:03:54;;;;;;;1.15;1.13;;;9.20;64.40;;;;;;4987626;28;20084;-79
2022/03/31 05:06:19;;;;;;;1.30;1.20;;;9.20;64.40;;;;;;4987658;28;20034;-78
2022/03/31 05:08:45;;;;;;;1.13;1.13;;;9.20;64.40;;;;;;4987114;28;20038;-76
2022/03/31 05:11:11;;;;;;;1.08;1.08;;;9.20;64.40;;;;;;4968214;28;20034;-79
2022/03/31 05:13:37;;;;;;;1.40;1.30;;;9.20;64.40;;;;;;4987803;28;20031;-77
2022/03/31 05:16:03;;;;;;;1.10;1.10;;;9.10;64.40;;;;;;4987242;28;20030;-79
2022/03/31 05:18:29;;;;;;;1.10;1.10;;;9.10;64.40;;;;;;4975082;28;20038;-80
2022/03/31 05:20:55;;;;;;;1.10;1.10;;;9.10;64.40;;;;;;4997954;28;20148;-77
2022/03/31 05:23:20;;;;;;;1.20;1.10;;;9.10;64.50;;;;;;4975473;28;20121;-79
2022/03/31 05:25:47;;;;;;;1.10;1.10;;;9.00;64.40;;;;;;4975000;28;20026;-78
2022/03/31 05:28:13;;;;;;;1.05;1.05;;;9.10;64.50;;;;;;4974704;28;20026;-76
2022/03/31 05:30:39;;;;;;;1.13;1.10;;;9.00;64.40;;;;;;4985699;28;20610;-78
2022/03/31 05:33:07;;;;;;;1.30;1.20;;;9.00;64.50;;;;;;4955909;28;20060;-77
2022/03/31 05:35:33;;;;;;;1.10;1.10;;;9.00;64.50;;;;;;4975104;28;20093;-77
2022/03/31 05:37:58;;;;;;;1.40;1.30;;;9.00;64.60;;;;;;4991304;28;20110;-77
2022/03/31 05:40:24;;;;;;;1.20;1.20;;;9.00;64.60;;;;;;4992079;28;20026;-77
2022/03/31 05:42:50;;;;;;;1.67;1.40;;;8.90;64.50;;;;;;4970203;28;20049;-77
2022/03/31 05:45:16;;;;;;;1.38;1.20;;;8.90;64.50;;;;;;4990698;28;20054;-77
2022/03/31 05:47:44;;;;;;;1.30;1.20;;;8.90;64.60;;;;;;4990397;28;20049;-77
2022/03/31 05:50:11;;;;;;;1.25;1.15;;;8.90;64.60;;;;;;4991963;28;20034;-77
2022/03/31 05:52:38;;;;;;;1.35;1.25;;;8.90;64.60;;;;;;4972170;28;20027;-77
2022/03/31 05:55:09;;;;;;;1.10;1.10;;;8.80;64.60;;;;;;4982524;28;20476;-78
2022/03/31 05:57:36;;;;;;;1.48;1.38;;;8.80;64.60;;;;;;4991360;28;20058;-74
2022/03/31 06:00:05;;;;;;;1.60;1.30;;;8.80;64.60;;;;;;5013044;28;20030;-77
2022/03/31 06:02:37;;;;;;;;;;;8.70;64.60;;;;;;5031343;28;20037;-76
2022/03/31 06:05:03;;;;;;;1.20;1.10;;;8.80;64.60;;;;;;5030429;28;19923;-78
2022/03/31 06:07:29;;;;;;;1.30;1.20;;;8.70;64.50;;;;;;4980223;28;20029;-78
2022/03/31 06:09:54;;;;;;;1.40;1.23;;;8.60;64.60;;;;;;4995741;28;20037;-79
2022/03/31 06:12:20;;;;;;;1.20;1.20;;;8.60;64.70;;;;;;4980896;28;20045;-78
2022/03/31 06:14:46;;;;;;;1.58;1.40;;;8.60;64.80;;;;;;5013346;28;20389;-78
2022/03/31 06:17:12;;;;;;;1.40;1.30;;;8.60;64.70;;;;;;4997291;28;20022;-78
2022/03/31 06:19:38;;;;;;;1.20;1.15;;;8.60;64.80;;;;;;5008600;28;20041;-78
2022/03/31 06:22:04;;;;;;;1.25;1.15;;;8.50;64.70;;;;;;4996564;28;20034;-77
2022/03/31 06:24:30;;;;;;;1.33;1.23;;;8.60;64.80;;;;;;4993477;28;20109;-78
2022/03/31 06:27:00;;;;;;;1.10;1.10;;;8.50;64.80;;;;;;4995216;28;20065;-78
2022/03/31 06:29:27;;;;;;;1.30;1.20;;;8.50;64.80;;;;;;5012646;28;20084;-79
2022/03/31 06:31:53;;;;;;;1.73;1.23;;;8.50;64.80;;;;;;4996129;28;20382;-79
2022/03/31 06:34:23;;;;;;;1.45;1.35;;;8.50;64.80;;;;;;5013610;28;20031;-79
2022/03/31 06:36:49;;;;;;;1.33;1.23;;;8.40;64.80;;;;;;4997503;28;20033;-79
2022/03/31 06:39:16;;;;;;;1.38;1.30;;;8.40;64.80;;;;;;5012896;28;20394;-78
2022/03/31 06:41:44;;;;;;;1.10;1.10;;;8.40;64.80;;;;;;4997060;28;20017;-79
2022/03/31 06:44:13;;;;;;;1.30;1.20;;;8.40;64.90;;;;;;5012173;28;20034;-79
2022/03/31 06:46:39;;;;;;;1.38;1.27;;;8.40;64.90;;;;;;4992774;28;20466;-79
2022/03/31 06:49:05;;;;;;;1.30;1.20;;;8.30;64.80;;;;;;5030186;28;20068;-79
2022/03/31 06:51:31;;;;;;;1.30;1.20;;;8.30;64.80;;;;;;4996907;28;20470;-78
2022/03/31 06:53:57;;;;;;;1.60;1.50;;;8.30;64.90;;;;;;4979848;28;20037;-78
2022/03/31 06:56:27;;;;;;;1.27;1.20;;;8.30;64.90;;;;;;4995948;28;20021;-78
2022/03/31 06:58:57;;;;;;;1.30;1.20;;;8.30;65.00;;;;;;4995578;28;20060;-78
2022/03/31 07:01:23;;;;;;;1.30;1.20;;;8.30;65.00;;;;;;4996295;28;20033;-78
2022/03/31 07:03:49;;;;;;;1.23;1.10;;;8.30;65.00;;;;;;5030193;28;20044;-78
2022/03/31 07:06:16;;;;;;;1.23;1.13;;;8.20;64.90;;;;;;4980845;28;20681;-77
2022/03/31 07:08:42;;;;;;;1.50;1.40;;;8.20;65.00;;;;;;5012934;28;20084;-78
2022/03/31 07:11:09;;;;;;;1.40;1.30;;;8.20;65.10;;;;;;5025926;28;20034;-78
2022/03/31 07:13:35;;;;;;;1.35;1.25;;;8.20;65.10;;;;;;5019886;28;20034;-78
2022/03/31 07:16:01;;;;;;;1.27;1.25;;;8.20;65.10;;;;;;4954263;28;20466;-77
2022/03/31 07:18:27;;;;;;;1.50;1.40;;;8.20;65.10;;;;;;5008545;28;20049;-78
2022/03/31 07:20:53;;;;;;;1.13;1.10;;;8.10;65.10;;;;;;5011263;28;20078;-79
2022/03/31 07:23:23;;;;;;;1.40;1.30;;;8.10;65.10;;;;;;4994829;28;20030;-80
2022/03/31 07:25:50;;;;;;;1.40;1.30;;;8.10;65.10;;;;;;5012604;28;20033;-78
2022/03/31 07:28:16;;;;;;;1.17;1.17;;;8.10;65.20;;;;;;5010530;28;20028;-77
2022/03/31 07:30:42;;;;;;;1.33;1.23;;;8.10;65.20;;;;;;4973242;28;20029;-77
2022/03/31 07:33:09;;;;;;;1.20;1.20;;;8.00;65.10;;;;;;5011443;28;20489;-77
2022/03/31 07:35:39;;;;;;;1.25;1.15;;;8.00;65.20;;;;;;5010679;28;20017;-78
2022/03/31 07:38:08;;;;;;;1.30;1.20;;;8.00;65.20;;;;;;4999429;28;20026;-78
2022/03/31 07:40:37;;;;;;;1.30;1.20;;;8.00;65.20;;;;;;5019090;28;20022;-77
2022/03/31 07:43:04;;;;;;;1.40;1.30;;;8.00;65.30;;;;;;5003387;28;20028;-76
2022/03/31 07:45:30;;;;;;;1.20;1.20;;;8.00;65.30;;;;;;4995704;28;20053;-77
2022/03/31 07:47:56;;;;;;;1.50;1.40;;;8.00;65.30;;;;;;5001575;28;20500;-77
2022/03/31 07:50:22;;;;;;;1.20;1.20;;;8.00;65.30;;;;;;5015627;28;20049;-77
2022/03/31 07:52:49;;;;;;;1.25;1.20;;;7.90;65.30;;;;;;5015316;28;20025;-77
2022/03/31 07:55:16;;;;;;;1.40;1.30;;;7.90;65.30;;;;;;4979287;28;20018;-77
2022/03/31 07:57:44;;;;;;;1.20;1.10;;;7.90;65.30;;;;;;5004507;28;20040;-77
2022/03/31 08:00:12;;;;;;;1.40;1.30;;;7.90;65.30;;;;;;4998475;28;20041;-78
2022/03/31 08:02:43;;;;;;;1.30;1.20;;;7.90;65.40;;;;;;5007649;28;20139;-77
2022/03/31 08:05:09;;;;;;;1.05;1.05;;;7.90;65.40;;;;;;5007403;28;20113;-77
2022/03/31 08:07:39;;;;;;;1.40;1.30;;;7.90;65.40;;;;;;4995979;28;20029;-76
2022/03/31 08:10:06;;;;;;;1.30;1.20;;;7.90;65.50;;;;;;5014536;28;20486;-78
2022/03/31 08:12:34;;;;;;;1.40;1.30;;;7.90;65.50;;;;;;4999575;28;20075;-77
2022/03/31 08:15:00;;;;;;;1.20;1.15;;;7.90;65.50;;;;;;4991053;28;20022;-80
2022/03/31 08:17:27;;;;;;;1.40;1.30;;;7.80;65.40;;;;;;5015654;28;20059;-76
2022/03/31 08:19:53;;;;;;;1.40;1.30;;;7.80;65.50;;;;;;4983203;28;20048;-81
2022/03/31 08:22:19;;;;;;;1.40;1.30;;;7.80;65.50;;;;;;5015316;28;20026;-78
2022/03/31 08:24:45;;;;;;;1.30;1.20;;;7.80;65.50;;;;;;5032557;28;20113;-77
2022/03/31 08:27:11;;;;;;;1.30;1.20;;;7.80;65.60;;;;;;5012484;28;20036;-77
2022/03/31 08:29:37;;;;;;;1.15;1.10;;;7.80;65.50;;;;;;5006979;28;20030;-76
2022/03/31 08:32:04;;;;;;;1.25;1.15;;;7.80;65.50;;;;;;5012823;28;20386;-79
2022/03/31 08:34:30;;;;;;;1.58;1.40;;;7.80;65.60;;;;;;4996869;28;20474;-79
2022/03/31 08:36:56;;;;;;;1.50;1.40;;;7.80;65.60;;;;;;4980580;28;20084;-77
2022/03/31 08:39:21;;;;;;;1.40;1.30;;;7.80;65.60;;;;;;4994694;28;20128;-76
2022/03/31 08:41:47;;;;;;;1.42;1.33;;;7.80;65.60;;;;;;5031452;28;20120;-77
2022/03/31 08:44:15;;;;;;;1.50;1.40;;;7.80;65.60;;;;;;5012755;28;20108;-77
2022/03/31 08:46:41;;;;;;;1.35;1.30;;;7.80;65.70;;;;;;5013327;28;20047;-77
2022/03/31 08:49:09;;;;;;;1.40;1.30;;;7.80;65.60;;;;;;4997098;28;20425;-76
2022/03/31 08:51:35;;;;;;;1.60;1.50;;;7.80;65.70;;;;;;5007733;28;20091;-76
2022/03/31 08:54:01;;;;;;;1.42;1.33;;;7.70;65.60;;;;;;5010230;28;20068;-77
2022/03/31 08:56:27;;;;;;;1.48;1.38;;;7.70;65.70;;;;;;5031287;28;20109;-77
2022/03/31 08:58:53;;;;;;;1.42;1.33;;;7.80;65.70;;;;;;5013005;28;20484;-75
2022/03/31 09:01:18;;;;;;;1.40;1.30;;;7.70;65.70;;;;;;5011907;28;20033;-75
2022/03/31 09:03:44;;;;;;;1.42;1.33;;;7.70;65.70;;;;;;5030821;28;20052;-76
2022/03/31 09:06:30;;;;;;;1.40;1.30;;;7.70;65.70;;;;;;4993215;28;20041;-81
2022/03/31 09:08:56;;;;;;;1.40;1.30;;;7.70;65.90;;;;;;5005648;28;20493;-81
2022/03/31 09:11:33;;;;;;;1.50;1.40;;;7.70;65.80;;;;;;4996420;28;20120;-75
2022/03/31 09:14:01;;;;;;;1.15;1.13;;;7.70;65.80;;;;;;5030203;28;20029;-75
2022/03/31 09:16:38;;;;;;;1.50;1.40;;;7.70;65.80;;;;;;5028420;28;20045;-75
2022/03/31 09:19:05;;;;;;;1.25;1.20;;;7.70;65.90;;;;;;5029663;28;20029;-80
2022/03/31 09:21:31;;;;;;;1.45;1.35;;;7.70;65.90;;;;;;5012746;28;20034;-78
2022/03/31 09:23:58;;;;;;;1.50;1.40;;;7.70;65.90;;;;;;5030754;28;20033;-78
2022/03/31 09:26:27;;;;;;;2.13;1.30;;;7.70;66.00;;;;;;4995109;28;20071;-76
2022/03/31 09:28:55;;;;;;;1.30;1.27;;;7.70;66.00;;;;;;5029933;28;20033;-76
2022/03/31 09:31:25;;;;;;;1.50;1.40;;;7.70;66.00;;;;;;4994382;28;20026;-77
2022/03/31 09:33:56;;;;;;;1.50;1.40;;;7.80;66.10;;;;;;4996313;28;20064;-79
2022/03/31 09:36:24;;;;;;;1.50;1.40;;;7.70;66.00;;;;;;5012198;28;20029;-78
2022/03/31 09:39:01;;;;;;;1.38;1.30;;;7.70;66.10;;;;;;5023183;28;20533;-78
2022/03/31 09:41:28;;;;;;;1.38;1.27;;;7.80;66.10;;;;;;5024292;28;20423;-78
2022/03/31 09:43:55;;;;;;;1.40;1.30;;;7.80;66.80;;;;;;4996204;28;20079;-77
2022/03/31 09:46:21;;;;;;;1.38;1.27;;;7.80;66.20;;;;;;5012252;28;20060;-78
2022/03/31 09:48:48;;;;;;;1.60;1.50;;;7.80;66.20;;;;;;5003811;28;20898;-77
2022/03/31 09:51:14;;;;;;;1.38;1.27;;;7.80;66.20;;;;;;4998846;28;20034;-77
2022/03/31 09:53:41;;;;;;;1.73;1.60;;;7.80;66.20;;;;;;5028504;28;20026;-76
2022/03/31 09:56:07;;;;;;;2.20;1.40;;;7.80;66.20;;;;;;4996827;28;20080;-76
2022/03/31 09:58:37;;;;;;;1.60;1.50;;;7.80;66.30;;;;;;5012929;28;20120;-74
2022/03/31 10:01:04;;;;;;;1.60;1.50;;;7.80;66.30;;;;;;5007080;28;20054;-74
2022/03/31 10:03:31;;;;;;;1.58;1.48;;;7.80;66.30;;;;;;5012480;28;20029;-79
2022/03/31 10:06:01;;;;;;;1.50;1.40;;;7.80;66.30;;;;;;4994134;28;20033;-75
2022/03/31 10:08:32;;;;;;;1.50;1.40;;;7.80;66.30;;;;;;5013766;28;20041;-75
2022/03/31 10:10:59;;;;;;;1.60;1.50;;;7.80;66.30;;;;;;5000190;28;20092;-77
2022/03/31 10:13:30;;;;;;;1.65;1.55;;;7.80;66.30;;;;;;5004122;28;20036;-76
2022/03/31 10:16:06;;;;;;;1.83;1.70;;;7.90;66.40;;;;;;4980850;28;20117;-78
2022/03/31 10:18:31;;;;;;;;;;;7.80;66.40;;;;;;5013424;28;20407;-76
2022/03/31 10:20:59;;;;;;;1.50;1.40;;;7.80;66.30;;;;;;5022935;28;20020;-76
2022/03/31 10:26:27;;;;;;;1.48;1.38;;;7.80;66.40;;;;;;5030944;28;20032;-77
2022/03/31 10:29:14;;;;;;;1.67;1.58;;;7.80;66.50;;;;;;5031102;28;20029;-77
2022/03/31 10:31:45;;;;;;;1.60;1.50;;;7.80;66.60;;;;;;5017807;28;20025;-78
2022/03/31 10:34:14;;;;;;;1.50;1.40;;;7.80;66.50;;;;;;4996664;28;20032;-77
2022/03/31 10:36:44;;;;;;;1.55;1.45;;;7.80;66.60;;;;;;5004915;28;20032;-78
2022/03/31 10:39:24;;;;;;;2.15;1.48;;;7.80;66.60;;;;;;5012163;28;20045;-78
2022/03/31 10:42:10;;;;;;;1.73;1.63;;;7.90;66.70;;;;;;5023240;28;20029;-79
2022/03/31 10:44:35;;;;;;;2.53;1.85;;;7.90;66.80;;;;;;4978974;28;20030;-76
2022/03/31 10:47:02;;;;;;;1.80;1.42;;;7.90;66.60;;;;;;5030549;28;20026;-78
2022/03/31 10:49:29;;;;;;;1.83;1.70;;;7.90;66.70;;;;;;5004259;28;20037;-77
2022/03/31 10:51:55;;;;;;;1.60;1.50;;;7.90;66.70;;;;;;5002760;28;20117;-75
2022/03/31 10:54:31;;;;;;;1.70;1.60;;;7.90;66.80;;;;;;5020208;28;20036;-77
2022/03/31 10:57:12;;;;;;;2.35;1.70;;;7.90;66.80;;;;;;5029925;28;20025;-77
2022/03/31 10:59:40;;;;;;;1.90;1.70;;;7.90;66.80;;;;;;5011922;28;20073;-78
2022/03/31 11:02:19;;;;;;;2.15;1.70;;;7.90;66.80;;;;;;5003888;28;20057;-78
2022/03/31 11:04:55;;;;;;;1.85;1.70;;;8.00;67.00;;;;;;5011107;28;20021;-82
2022/03/31 11:07:25;;;;;;;2.13;1.63;;;8.00;66.80;;;;;;5028239;28;20116;-76
2022/03/31 11:10:12;;;;;;;1.80;1.63;;;8.00;66.90;;;;;;5012188;28;20039;-76
2022/03/31 11:12:38;;;;;;;1.63;1.52;;;8.00;66.90;;;;;;4995984;28;20060;-78
2022/03/31 11:15:12;;;;;;;1.63;1.52;;;8.00;66.80;;;;;;5000667;28;20073;-78
2022/03/31 11:17:41;;;;;;;1.95;1.77;;;8.00;67.10;;;;;;5024077;28;20033;-78
2022/03/31 11:20:20;;;;;;;1.70;1.60;;;8.00;66.90;;;;;;5029869;28;20254;-79
2022/03/31 11:22:49;;;;;;;1.60;1.50;;;8.00;66.90;;;;;;4997026;28;20022;-80
2022/03/31 11:25:16;;;;;;;1.50;1.40;;;8.00;66.90;;;;;;4999412;28;20021;-79
2022/03/31 11:27:43;;;;;;;1.77;1.67;;;8.00;66.90;;;;;;5016968;28;20026;-80
2022/03/31 11:30:13;;;;;;;1.60;1.50;;;8.10;67.00;;;;;;5016591;28;20040;-78
2022/03/31 11:32:40;;;;;;;1.70;1.50;;;8.10;67.00;;;;;;5008667;28;20029;-79
2022/03/31 11:35:15;;;;;;;1.67;1.58;;;8.10;67.00;;;;;;4985652;28;20030;-80
2022/03/31 11:37:52;;;;;;;1.60;1.50;;;8.10;67.00;;;;;;5025013;28;20112;-80
2022/03/31 11:40:22;;;;;;;1.77;1.55;;;8.10;67.00;;;;;;5000220;28;20125;-80
2022/03/31 11:42:50;;;;;;;1.60;1.50;;;8.10;66.90;;;;;;4980963;28;20034;-80
2022/03/31 11:45:33;;;;;;;1.30;1.20;;;8.10;66.90;;;;;;4997493;28;20064;-79
2022/03/31 11:48:11;;;;;;;1.40;1.30;;;8.10;67.00;;;;;;5027321;28;20413;-78
2022/03/31 11:50:56;;;;;;;1.60;1.50;;;8.10;67.00;;;;;;5008238;28;20038;-80
2022/03/31 11:53:29;;;;;;;1.40;1.30;;;8.10;67.10;;;;;;5034215;28;20025;-80
2022/03/31 11:55:57;;;;;;;1.40;1.30;;;8.20;67.00;;;;;;4999278;28;20486;-79
2022/03/31 11:58:23;;;;;;;1.50;1.40;;;8.20;67.10;;;;;;5015586;28;20145;-80
2022/03/31 12:00:50;;;;;;;1.58;1.48;;;8.20;67.10;;;;;;4999664;28;20571;-80
2022/03/31 12:03:17;;;;;;;1.52;1.42;;;8.20;67.10;;;;;;5015644;28;20025;-79
2022/03/31 12:05:53;;;;;;;1.45;1.35;;;8.20;67.10;;;;;;5002175;28;20037;-81
2022/03/31 12:08:19;;;;;;;1.60;1.50;;;8.20;67.80;;;;;;5021554;28;20029;-79
2022/03/31 12:10:49;;;;;;;1.30;1.20;;;8.20;67.10;;;;;;5004364;28;20067;-79
2022/03/31 12:13:15;;;;;;;1.42;1.33;;;8.20;67.10;;;;;;5032014;28;20033;-80
2022/03/31 12:15:41;;;;;;;1.50;1.40;;;8.20;67.10;;;;;;5010908;28;20101;-80
2022/03/31 12:18:10;;;;;;;1.50;1.40;;;8.20;67.10;;;;;;5007581;28;20030;-79
2022/03/31 12:20:37;;;;;;;1.52;1.40;;;8.20;67.10;;;;;;5015658;28;20386;-80
2022/03/31 12:23:17;;;;;;;1.30;1.20;;;8.20;67.10;;;;;;4995923;28;20022;-79
2022/03/31 12:25:43;;;;;;;1.50;1.40;;;8.20;67.10;;;;;;5009492;28;20025;-79
2022/03/31 12:28:09;;;;;;;1.48;1.38;;;8.20;67.10;;;;;;4995651;28;20462;-80
2022/03/31 12:30:44;;;;;;;1.52;1.20;;;8.20;67.10;;;;;;4999205;28;20045;-79
2022/03/31 12:33:39;;;;;;;1.40;1.30;;;8.30;67.20;;;;;;4995606;28;20028;-79
2022/03/31 12:36:07;;;;;;;1.50;1.40;;;8.30;67.20;;;;;;5008824;28;20037;-79
2022/03/31 12:38:48;;;;;;;1.30;1.20;;;8.20;67.00;;;;;;5008410;28;20076;-79
2022/03/31 12:41:19;;;;;;;1.50;1.40;;;8.20;67.10;;;;;;5015482;28;20516;-79
2022/03/31 12:44:11;;;;;;;1.30;1.20;;;8.30;67.20;;;;;;5024559;28;20156;-79
2022/03/31 12:46:45;;;;;;;1.30;1.20;;;8.20;67.20;;;;;;4990429;28;20033;-80
2022/03/31 12:49:13;;;;;;;1.50;1.40;;;8.20;67.20;;;;;;4999048;28;20037;-81
2022/03/31 12:51:57;;;;;;;1.33;1.23;;;8.20;67.10;;;;;;4998081;28;20021;-80
2022/03/31 12:54:36;;;;;;;1.10;1.10;;;8.20;67.20;;;;;;4998563;28;20536;-80
2022/03/31 12:57:14;;;;;;;1.05;1.05;;;8.20;67.10;;;;;;5006464;28;20021;-80
2022/03/31 12:59:41;;;;;;;1.15;1.15;;;8.20;67.20;;;;;;5005421;28;20037;-79
2022/03/31 13:02:11;;;;;;;1.10;1.10;;;8.20;67.20;;;;;;5024523;28;20029;-81
2022/03/31 13:04:42;;;;;;;1.23;1.13;;;8.30;67.30;;;;;;4989938;28;20048;-80